sensor_id;sensor_type;location;lat;lon;timestamp;P1;durP1;ratioP1;P2;durP2;ratioP2
40907;SDS011;51055;59.436;24.778;2023-10-31T00:02:25;9.88;;;6.25;;
40907;SDS011;51055;59.436;24.778;2023-10-31T00:04:53;8.57;;;5.68;;
40907;SDS011;51055;59.436;24.778;2023-10-31T00:07:21;8.38;;;5.68;;
40907;SDS011;51055;59.436;24.778;2023-10-31T00:09:48;9.38;;;4.93;;
40907;SDS011;51055;59.436;24.778;2023-10-31T00:12:16;9.40;;;5.50;;
40907;SDS011;51055;59.436;24.778;2023-10-31T00:14:44;9.35;;;5.63;;
40907;SDS011;51055;59.436;24.778;2023-10-31T00:17:11;9.00;;;5.43;;
40907;SDS011;51055;59.436;24.778;2023-10-31T00:19:39;8.52;;;5.30;;
40907;SDS011;51055;59.436;24.778;2023-10-31T00:22:07;6.80;;;4.10;;
40907;SDS011;51055;59.436;24.778;2023-10-31T00:24:35;8.45;;;5.22;;
40907;SDS011;51055;59.436;24.778;2023-10-31T00:27:02;8.20;;;5.10;;
40907;SDS011;51055;59.436;24.778;2023-10-31T00:29:30;8.90;;;5.30;;
40907;SDS011;51055;59.436;24.778;2023-10-31T00:31:58;8.88;;;5.22;;
40907;SDS011;51055;59.436;24.778;2023-10-31T00:34:25;8.00;;;5.43;;
40907;SDS011;51055;59.436;24.778;2023-10-31T00:36:53;7.72;;;5.07;;
40907;SDS011;51055;59.436;24.778;2023-10-31T00:39:21;8.10;;;5.28;;
40907;SDS011;51055;59.436;24.778;2023-10-31T00:41:49;8.43;;;5.07;;
40907;SDS011;51055;59.436;24.778;2023-10-31T00:44:17;8.57;;;5.40;;
40907;SDS011;51055;59.436;24.778;2023-10-31T00:46:44;7.93;;;4.75;;
40907;SDS011;51055;59.436;24.778;2023-10-31T00:49:12;6.82;;;4.38;;
40907;SDS011;51055;59.436;24.778;2023-10-31T00:51:40;6.83;;;4.10;;
40907;SDS011;51055;59.436;24.778;2023-10-31T00:54:08;9.23;;;4.90;;
40907;SDS011;51055;59.436;24.778;2023-10-31T00:56:35;8.30;;;4.78;;
40907;SDS011;51055;59.436;24.778;2023-10-31T00:59:03;7.68;;;4.78;;
40907;SDS011;51055;59.436;24.778;2023-10-31T01:01:31;7.38;;;4.30;;
40907;SDS011;51055;59.436;24.778;2023-10-31T01:03:59;7.35;;;4.32;;
40907;SDS011;51055;59.436;24.778;2023-10-31T01:06:27;6.90;;;4.13;;
40907;SDS011;51055;59.436;24.778;2023-10-31T01:08:54;6.55;;;4.20;;
40907;SDS011;51055;59.436;24.778;2023-10-31T01:11:22;7.97;;;4.13;;
40907;SDS011;51055;59.436;24.778;2023-10-31T01:13:50;7.07;;;3.80;;
40907;SDS011;51055;59.436;24.778;2023-10-31T01:16:18;6.38;;;3.97;;
40907;SDS011;51055;59.436;24.778;2023-10-31T01:18:45;6.38;;;3.78;;
40907;SDS011;51055;59.436;24.778;2023-10-31T01:21:13;6.63;;;3.85;;
40907;SDS011;51055;59.436;24.778;2023-10-31T01:23:41;6.50;;;4.00;;
40907;SDS011;51055;59.436;24.778;2023-10-31T01:26:09;6.72;;;3.90;;
40907;SDS011;51055;59.436;24.778;2023-10-31T01:28:37;6.47;;;3.65;;
40907;SDS011;51055;59.436;24.778;2023-10-31T01:31:04;6.75;;;3.70;;
40907;SDS011;51055;59.436;24.778;2023-10-31T01:33:33;5.72;;;3.20;;
40907;SDS011;51055;59.436;24.778;2023-10-31T01:36:01;5.85;;;3.53;;
40907;SDS011;51055;59.436;24.778;2023-10-31T01:38:29;6.40;;;3.20;;
40907;SDS011;51055;59.436;24.778;2023-10-31T01:40:56;6.28;;;3.15;;
40907;SDS011;51055;59.436;24.778;2023-10-31T01:43:31;5.53;;;3.25;;
40907;SDS011;51055;59.436;24.778;2023-10-31T01:46:01;6.18;;;3.17;;
40907;SDS011;51055;59.436;24.778;2023-10-31T01:48:30;5.45;;;2.80;;
40907;SDS011;51055;59.436;24.778;2023-10-31T01:51:00;5.15;;;2.80;;
40907;SDS011;51055;59.436;24.778;2023-10-31T01:53:31;6.38;;;2.88;;
40907;SDS011;51055;59.436;24.778;2023-10-31T01:56:01;7.68;;;3.15;;
40907;SDS011;51055;59.436;24.778;2023-10-31T01:58:34;5.65;;;3.00;;
40907;SDS011;51055;59.436;24.778;2023-10-31T02:01:04;4.78;;;2.35;;
40907;SDS011;51055;59.436;24.778;2023-10-31T02:03:32;4.68;;;2.50;;
40907;SDS011;51055;59.436;24.778;2023-10-31T02:06:01;3.90;;;2.22;;
40907;SDS011;51055;59.436;24.778;2023-10-31T02:08:29;3.78;;;2.00;;
40907;SDS011;51055;59.436;24.778;2023-10-31T02:10:57;5.10;;;2.63;;
40907;SDS011;51055;59.436;24.778;2023-10-31T02:13:25;7.07;;;2.85;;
40907;SDS011;51055;59.436;24.778;2023-10-31T02:15:52;4.90;;;2.70;;
40907;SDS011;51055;59.436;24.778;2023-10-31T02:18:20;4.95;;;2.53;;
40907;SDS011;51055;59.436;24.778;2023-10-31T02:20:48;5.10;;;2.97;;
40907;SDS011;51055;59.436;24.778;2023-10-31T02:23:16;6.15;;;2.58;;
40907;SDS011;51055;59.436;24.778;2023-10-31T02:25:44;5.65;;;2.28;;
40907;SDS011;51055;59.436;24.778;2023-10-31T02:28:12;4.47;;;2.38;;
40907;SDS011;51055;59.436;24.778;2023-10-31T02:30:40;6.03;;;2.90;;
40907;SDS011;51055;59.436;24.778;2023-10-31T02:33:08;5.90;;;2.85;;
40907;SDS011;51055;59.436;24.778;2023-10-31T02:35:35;6.18;;;3.15;;
40907;SDS011;51055;59.436;24.778;2023-10-31T02:38:03;4.95;;;2.58;;
40907;SDS011;51055;59.436;24.778;2023-10-31T02:40:30;5.28;;;2.90;;
40907;SDS011;51055;59.436;24.778;2023-10-31T02:42:58;7.22;;;2.72;;
40907;SDS011;51055;59.436;24.778;2023-10-31T02:45:26;5.03;;;2.80;;
40907;SDS011;51055;59.436;24.778;2023-10-31T02:47:54;6.78;;;3.22;;
40907;SDS011;51055;59.436;24.778;2023-10-31T02:50:22;5.47;;;2.40;;
40907;SDS011;51055;59.436;24.778;2023-10-31T02:52:50;6.00;;;3.13;;
40907;SDS011;51055;59.436;24.778;2023-10-31T02:55:17;5.78;;;3.40;;
40907;SDS011;51055;59.436;24.778;2023-10-31T02:57:45;5.88;;;3.00;;
40907;SDS011;51055;59.436;24.778;2023-10-31T03:00:13;6.00;;;2.88;;
40907;SDS011;51055;59.436;24.778;2023-10-31T03:02:41;5.82;;;3.28;;
40907;SDS011;51055;59.436;24.778;2023-10-31T03:05:08;6.45;;;3.17;;
40907;SDS011;51055;59.436;24.778;2023-10-31T03:07:36;5.38;;;3.08;;
40907;SDS011;51055;59.436;24.778;2023-10-31T03:10:04;6.05;;;2.92;;
40907;SDS011;51055;59.436;24.778;2023-10-31T03:12:32;4.75;;;2.40;;
40907;SDS011;51055;59.436;24.778;2023-10-31T03:15:00;7.25;;;3.65;;
40907;SDS011;51055;59.436;24.778;2023-10-31T03:17:28;6.53;;;3.25;;
40907;SDS011;51055;59.436;24.778;2023-10-31T03:19:56;6.68;;;3.50;;
40907;SDS011;51055;59.436;24.778;2023-10-31T03:22:23;5.97;;;3.10;;
40907;SDS011;51055;59.436;24.778;2023-10-31T03:24:51;6.95;;;3.35;;
40907;SDS011;51055;59.436;24.778;2023-10-31T03:27:19;5.97;;;3.20;;
40907;SDS011;51055;59.436;24.778;2023-10-31T03:29:46;7.53;;;3.80;;
40907;SDS011;51055;59.436;24.778;2023-10-31T03:32:15;5.78;;;3.55;;
40907;SDS011;51055;59.436;24.778;2023-10-31T03:34:43;6.40;;;3.33;;
40907;SDS011;51055;59.436;24.778;2023-10-31T03:37:11;6.53;;;3.78;;
40907;SDS011;51055;59.436;24.778;2023-10-31T03:39:38;7.05;;;3.30;;
40907;SDS011;51055;59.436;24.778;2023-10-31T03:42:06;8.93;;;4.07;;
40907;SDS011;51055;59.436;24.778;2023-10-31T03:44:34;6.90;;;3.80;;
40907;SDS011;51055;59.436;24.778;2023-10-31T03:47:02;6.80;;;3.80;;
40907;SDS011;51055;59.436;24.778;2023-10-31T03:49:29;7.88;;;3.58;;
40907;SDS011;51055;59.436;24.778;2023-10-31T03:51:57;6.82;;;3.42;;
40907;SDS011;51055;59.436;24.778;2023-10-31T03:54:24;8.68;;;3.40;;
40907;SDS011;51055;59.436;24.778;2023-10-31T03:56:52;6.78;;;3.88;;
40907;SDS011;51055;59.436;24.778;2023-10-31T03:59:20;6.55;;;3.70;;
40907;SDS011;51055;59.436;24.778;2023-10-31T04:01:47;6.38;;;3.70;;
40907;SDS011;51055;59.436;24.778;2023-10-31T04:04:15;6.28;;;3.70;;
40907;SDS011;51055;59.436;24.778;2023-10-31T04:06:43;6.60;;;3.58;;
40907;SDS011;51055;59.436;24.778;2023-10-31T04:09:11;4.70;;;2.40;;
40907;SDS011;51055;59.436;24.778;2023-10-31T04:11:38;7.18;;;3.35;;
40907;SDS011;51055;59.436;24.778;2023-10-31T04:14:06;6.00;;;2.70;;
40907;SDS011;51055;59.436;24.778;2023-10-31T04:16:38;6.05;;;3.33;;
40907;SDS011;51055;59.436;24.778;2023-10-31T04:19:06;6.20;;;3.28;;
40907;SDS011;51055;59.436;24.778;2023-10-31T04:21:34;6.18;;;3.47;;
40907;SDS011;51055;59.436;24.778;2023-10-31T04:24:01;6.47;;;3.38;;
40907;SDS011;51055;59.436;24.778;2023-10-31T04:26:29;5.38;;;3.17;;
40907;SDS011;51055;59.436;24.778;2023-10-31T04:28:57;6.45;;;3.28;;
40907;SDS011;51055;59.436;24.778;2023-10-31T04:31:25;6.03;;;3.13;;
40907;SDS011;51055;59.436;24.778;2023-10-31T04:34:05;6.47;;;3.15;;
40907;SDS011;51055;59.436;24.778;2023-10-31T04:36:32;7.00;;;3.38;;
40907;SDS011;51055;59.436;24.778;2023-10-31T04:39:00;5.53;;;2.90;;
40907;SDS011;51055;59.436;24.778;2023-10-31T04:41:28;7.03;;;3.80;;
40907;SDS011;51055;59.436;24.778;2023-10-31T04:43:55;7.57;;;4.43;;
40907;SDS011;51055;59.436;24.778;2023-10-31T04:46:26;6.80;;;4.17;;
40907;SDS011;51055;59.436;24.778;2023-10-31T04:48:54;6.13;;;3.20;;
40907;SDS011;51055;59.436;24.778;2023-10-31T04:51:22;7.80;;;3.90;;
40907;SDS011;51055;59.436;24.778;2023-10-31T04:53:49;6.45;;;3.70;;
40907;SDS011;51055;59.436;24.778;2023-10-31T04:56:17;5.93;;;3.53;;
40907;SDS011;51055;59.436;24.778;2023-10-31T04:58:45;6.20;;;3.38;;
40907;SDS011;51055;59.436;24.778;2023-10-31T05:01:13;6.13;;;3.60;;
40907;SDS011;51055;59.436;24.778;2023-10-31T05:03:41;8.02;;;4.00;;
40907;SDS011;51055;59.436;24.778;2023-10-31T05:06:09;7.15;;;3.92;;
40907;SDS011;51055;59.436;24.778;2023-10-31T05:08:36;7.05;;;4.13;;
40907;SDS011;51055;59.436;24.778;2023-10-31T05:11:04;6.70;;;4.10;;
40907;SDS011;51055;59.436;24.778;2023-10-31T05:13:31;8.70;;;4.30;;
40907;SDS011;51055;59.436;24.778;2023-10-31T05:15:59;6.70;;;4.15;;
40907;SDS011;51055;59.436;24.778;2023-10-31T05:18:27;7.80;;;4.68;;
40907;SDS011;51055;59.436;24.778;2023-10-31T05:20:55;9.30;;;5.00;;
40907;SDS011;51055;59.436;24.778;2023-10-31T05:23:23;10.32;;;5.00;;
40907;SDS011;51055;59.436;24.778;2023-10-31T05:25:50;9.57;;;5.45;;
40907;SDS011;51055;59.436;24.778;2023-10-31T05:28:18;9.00;;;5.10;;
40907;SDS011;51055;59.436;24.778;2023-10-31T05:30:45;7.32;;;4.28;;
40907;SDS011;51055;59.436;24.778;2023-10-31T05:33:16;6.10;;;3.70;;
40907;SDS011;51055;59.436;24.778;2023-10-31T05:35:43;7.68;;;3.67;;
40907;SDS011;51055;59.436;24.778;2023-10-31T05:38:11;7.57;;;3.88;;
40907;SDS011;51055;59.436;24.778;2023-10-31T05:40:39;9.10;;;4.00;;
40907;SDS011;51055;59.436;24.778;2023-10-31T05:43:06;7.28;;;3.92;;
40907;SDS011;51055;59.436;24.778;2023-10-31T05:45:34;8.48;;;4.03;;
40907;SDS011;51055;59.436;24.778;2023-10-31T05:48:02;8.27;;;4.10;;
40907;SDS011;51055;59.436;24.778;2023-10-31T05:50:31;7.70;;;4.45;;
40907;SDS011;51055;59.436;24.778;2023-10-31T05:52:58;7.38;;;3.85;;
40907;SDS011;51055;59.436;24.778;2023-10-31T05:55:26;5.97;;;3.35;;
40907;SDS011;51055;59.436;24.778;2023-10-31T05:57:54;8.00;;;4.50;;
40907;SDS011;51055;59.436;24.778;2023-10-31T06:00:22;9.70;;;4.32;;
40907;SDS011;51055;59.436;24.778;2023-10-31T06:02:50;8.57;;;4.22;;
40907;SDS011;51055;59.436;24.778;2023-10-31T06:05:17;9.25;;;4.20;;
40907;SDS011;51055;59.436;24.778;2023-10-31T06:07:45;8.40;;;4.40;;
40907;SDS011;51055;59.436;24.778;2023-10-31T06:10:13;10.23;;;4.23;;
40907;SDS011;51055;59.436;24.778;2023-10-31T06:12:41;9.63;;;4.75;;
40907;SDS011;51055;59.436;24.778;2023-10-31T06:15:09;8.85;;;4.10;;
40907;SDS011;51055;59.436;24.778;2023-10-31T06:17:37;8.07;;;4.65;;
40907;SDS011;51055;59.436;24.778;2023-10-31T06:20:08;10.23;;;4.65;;
40907;SDS011;51055;59.436;24.778;2023-10-31T06:22:37;11.73;;;4.40;;
40907;SDS011;51055;59.436;24.778;2023-10-31T06:25:05;9.27;;;4.78;;
40907;SDS011;51055;59.436;24.778;2023-10-31T06:27:33;9.57;;;4.50;;
40907;SDS011;51055;59.436;24.778;2023-10-31T06:30:00;10.38;;;4.20;;
40907;SDS011;51055;59.436;24.778;2023-10-31T06:32:47;8.65;;;4.53;;
40907;SDS011;51055;59.436;24.778;2023-10-31T06:35:15;9.88;;;5.05;;
40907;SDS011;51055;59.436;24.778;2023-10-31T06:37:43;9.40;;;4.18;;
40907;SDS011;51055;59.436;24.778;2023-10-31T06:40:11;9.35;;;4.65;;
40907;SDS011;51055;59.436;24.778;2023-10-31T06:42:38;11.48;;;5.00;;
40907;SDS011;51055;59.436;24.778;2023-10-31T06:45:06;8.93;;;4.70;;
40907;SDS011;51055;59.436;24.778;2023-10-31T06:47:34;7.35;;;3.70;;
40907;SDS011;51055;59.436;24.778;2023-10-31T06:50:02;7.90;;;4.47;;
40907;SDS011;51055;59.436;24.778;2023-10-31T06:52:30;10.43;;;4.57;;
40907;SDS011;51055;59.436;24.778;2023-10-31T06:54:57;8.90;;;4.47;;
40907;SDS011;51055;59.436;24.778;2023-10-31T06:57:25;8.45;;;4.38;;
40907;SDS011;51055;59.436;24.778;2023-10-31T06:59:53;8.60;;;4.30;;
40907;SDS011;51055;59.436;24.778;2023-10-31T07:02:21;9.85;;;5.05;;
40907;SDS011;51055;59.436;24.778;2023-10-31T07:04:49;10.27;;;4.32;;
40907;SDS011;51055;59.436;24.778;2023-10-31T07:07:16;7.50;;;4.20;;
40907;SDS011;51055;59.436;24.778;2023-10-31T07:09:44;12.05;;;4.90;;
40907;SDS011;51055;59.436;24.778;2023-10-31T07:12:11;8.73;;;4.40;;
40907;SDS011;51055;59.436;24.778;2023-10-31T07:14:39;9.65;;;4.72;;
40907;SDS011;51055;59.436;24.778;2023-10-31T07:17:06;9.27;;;4.80;;
40907;SDS011;51055;59.436;24.778;2023-10-31T07:19:34;8.80;;;4.88;;
40907;SDS011;51055;59.436;24.778;2023-10-31T07:22:02;9.70;;;4.82;;
40907;SDS011;51055;59.436;24.778;2023-10-31T07:24:30;6.90;;;3.80;;
40907;SDS011;51055;59.436;24.778;2023-10-31T07:26:58;11.10;;;4.60;;
40907;SDS011;51055;59.436;24.778;2023-10-31T07:29:25;10.38;;;5.47;;
40907;SDS011;51055;59.436;24.778;2023-10-31T07:31:53;12.57;;;5.38;;
40907;SDS011;51055;59.436;24.778;2023-10-31T07:34:21;6.40;;;3.83;;
40907;SDS011;51055;59.436;24.778;2023-10-31T07:36:49;8.10;;;4.72;;
40907;SDS011;51055;59.436;24.778;2023-10-31T07:39:16;8.82;;;4.90;;
40907;SDS011;51055;59.436;24.778;2023-10-31T07:41:44;10.73;;;6.03;;
40907;SDS011;51055;59.436;24.778;2023-10-31T07:44:12;10.07;;;5.68;;
40907;SDS011;51055;59.436;24.778;2023-10-31T07:46:40;12.75;;;5.60;;
40907;SDS011;51055;59.436;24.778;2023-10-31T07:49:08;11.95;;;6.00;;
40907;SDS011;51055;59.436;24.778;2023-10-31T07:51:36;11.23;;;6.28;;
40907;SDS011;51055;59.436;24.778;2023-10-31T07:54:04;10.60;;;5.60;;
40907;SDS011;51055;59.436;24.778;2023-10-31T07:56:32;8.65;;;4.93;;
40907;SDS011;51055;59.436;24.778;2023-10-31T07:59:02;14.02;;;7.18;;
40907;SDS011;51055;59.436;24.778;2023-10-31T08:01:30;13.27;;;6.27;;
40907;SDS011;51055;59.436;24.778;2023-10-31T08:03:57;14.05;;;7.07;;
40907;SDS011;51055;59.436;24.778;2023-10-31T08:06:25;12.30;;;6.35;;
40907;SDS011;51055;59.436;24.778;2023-10-31T08:08:53;10.50;;;5.82;;
40907;SDS011;51055;59.436;24.778;2023-10-31T08:11:21;12.93;;;6.43;;
40907;SDS011;51055;59.436;24.778;2023-10-31T08:13:49;11.32;;;6.05;;
40907;SDS011;51055;59.436;24.778;2023-10-31T08:16:17;8.90;;;4.85;;
40907;SDS011;51055;59.436;24.778;2023-10-31T08:18:48;11.55;;;5.53;;
40907;SDS011;51055;59.436;24.778;2023-10-31T08:21:16;12.35;;;5.38;;
40907;SDS011;51055;59.436;24.778;2023-10-31T08:23:44;10.27;;;5.72;;
40907;SDS011;51055;59.436;24.778;2023-10-31T08:26:14;10.40;;;5.68;;
40907;SDS011;51055;59.436;24.778;2023-10-31T08:28:41;10.52;;;5.55;;
40907;SDS011;51055;59.436;24.778;2023-10-31T08:31:09;9.48;;;5.60;;
40907;SDS011;51055;59.436;24.778;2023-10-31T08:33:37;10.75;;;5.47;;
40907;SDS011;51055;59.436;24.778;2023-10-31T08:36:04;11.73;;;5.85;;
40907;SDS011;51055;59.436;24.778;2023-10-31T08:38:34;10.25;;;5.85;;
40907;SDS011;51055;59.436;24.778;2023-10-31T08:41:02;12.38;;;7.13;;
40907;SDS011;51055;59.436;24.778;2023-10-31T08:43:30;6.53;;;4.20;;
40907;SDS011;51055;59.436;24.778;2023-10-31T08:45:58;11.18;;;5.97;;
40907;SDS011;51055;59.436;24.778;2023-10-31T08:48:26;13.15;;;5.93;;
40907;SDS011;51055;59.436;24.778;2023-10-31T08:50:53;10.98;;;5.78;;
40907;SDS011;51055;59.436;24.778;2023-10-31T08:53:21;11.00;;;5.90;;
40907;SDS011;51055;59.436;24.778;2023-10-31T08:55:50;11.80;;;5.50;;
40907;SDS011;51055;59.436;24.778;2023-10-31T08:58:17;9.25;;;6.15;;
40907;SDS011;51055;59.436;24.778;2023-10-31T09:00:45;8.90;;;5.32;;
40907;SDS011;51055;59.436;24.778;2023-10-31T09:03:13;10.95;;;5.93;;
40907;SDS011;51055;59.436;24.778;2023-10-31T09:05:41;9.75;;;5.70;;
40907;SDS011;51055;59.436;24.778;2023-10-31T09:08:09;10.52;;;5.60;;
40907;SDS011;51055;59.436;24.778;2023-10-31T09:10:37;9.82;;;5.70;;
40907;SDS011;51055;59.436;24.778;2023-10-31T09:13:05;11.75;;;6.47;;
40907;SDS011;51055;59.436;24.778;2023-10-31T09:15:33;9.57;;;5.60;;
40907;SDS011;51055;59.436;24.778;2023-10-31T09:18:01;9.93;;;5.15;;
40907;SDS011;51055;59.436;24.778;2023-10-31T09:20:29;12.05;;;5.50;;
40907;SDS011;51055;59.436;24.778;2023-10-31T09:22:57;11.48;;;6.35;;
40907;SDS011;51055;59.436;24.778;2023-10-31T09:25:25;10.52;;;5.40;;
40907;SDS011;51055;59.436;24.778;2023-10-31T09:27:52;9.15;;;5.57;;
40907;SDS011;51055;59.436;24.778;2023-10-31T09:30:20;10.93;;;5.60;;
40907;SDS011;51055;59.436;24.778;2023-10-31T09:32:48;11.00;;;5.45;;
40907;SDS011;51055;59.436;24.778;2023-10-31T09:35:16;9.10;;;5.67;;
40907;SDS011;51055;59.436;24.778;2023-10-31T09:37:44;7.23;;;3.87;;
40907;SDS011;51055;59.436;24.778;2023-10-31T09:40:16;9.18;;;5.53;;
40907;SDS011;51055;59.436;24.778;2023-10-31T09:42:44;9.65;;;5.32;;
40907;SDS011;51055;59.436;24.778;2023-10-31T09:45:13;10.63;;;5.72;;
40907;SDS011;51055;59.436;24.778;2023-10-31T09:47:42;8.70;;;4.45;;
40907;SDS011;51055;59.436;24.778;2023-10-31T09:50:10;8.65;;;5.57;;
40907;SDS011;51055;59.436;24.778;2023-10-31T09:52:39;10.57;;;6.10;;
40907;SDS011;51055;59.436;24.778;2023-10-31T09:55:07;10.18;;;5.78;;
40907;SDS011;51055;59.436;24.778;2023-10-31T09:57:35;12.88;;;6.00;;
40907;SDS011;51055;59.436;24.778;2023-10-31T10:00:03;11.98;;;5.82;;
40907;SDS011;51055;59.436;24.778;2023-10-31T10:02:31;10.45;;;6.13;;
40907;SDS011;51055;59.436;24.778;2023-10-31T10:04:59;10.35;;;5.63;;
40907;SDS011;51055;59.436;24.778;2023-10-31T10:07:27;9.05;;;5.75;;
40907;SDS011;51055;59.436;24.778;2023-10-31T10:09:55;11.15;;;5.97;;
40907;SDS011;51055;59.436;24.778;2023-10-31T10:12:23;6.40;;;4.40;;
40907;SDS011;51055;59.436;24.778;2023-10-31T10:14:51;9.30;;;5.55;;
40907;SDS011;51055;59.436;24.778;2023-10-31T10:17:20;10.57;;;5.63;;
40907;SDS011;51055;59.436;24.778;2023-10-31T10:22:32;8.77;;;5.68;;
40907;SDS011;51055;59.436;24.778;2023-10-31T10:25:00;10.38;;;6.18;;
40907;SDS011;51055;59.436;24.778;2023-10-31T10:27:27;10.35;;;5.65;;
40907;SDS011;51055;59.436;24.778;2023-10-31T10:29:55;8.63;;;5.45;;
40907;SDS011;51055;59.436;24.778;2023-10-31T10:32:22;10.52;;;6.35;;
40907;SDS011;51055;59.436;24.778;2023-10-31T10:34:50;11.98;;;6.28;;
40907;SDS011;51055;59.436;24.778;2023-10-31T10:37:18;10.33;;;6.20;;
40907;SDS011;51055;59.436;24.778;2023-10-31T10:39:47;8.32;;;5.65;;
40907;SDS011;51055;59.436;24.778;2023-10-31T10:42:19;13.63;;;6.95;;
40907;SDS011;51055;59.436;24.778;2023-10-31T10:44:59;12.30;;;6.90;;
40907;SDS011;51055;59.436;24.778;2023-10-31T10:47:33;9.75;;;6.47;;
40907;SDS011;51055;59.436;24.778;2023-10-31T10:50:03;10.15;;;6.65;;
40907;SDS011;51055;59.436;24.778;2023-10-31T10:52:48;11.80;;;6.60;;
40907;SDS011;51055;59.436;24.778;2023-10-31T10:55:21;11.60;;;6.75;;
40907;SDS011;51055;59.436;24.778;2023-10-31T10:57:54;12.48;;;6.90;;
40907;SDS011;51055;59.436;24.778;2023-10-31T11:00:32;12.82;;;6.53;;
40907;SDS011;51055;59.436;24.778;2023-10-31T11:03:01;11.50;;;6.20;;
40907;SDS011;51055;59.436;24.778;2023-10-31T11:05:31;9.05;;;6.47;;
40907;SDS011;51055;59.436;24.778;2023-10-31T11:12:57;6.53;;;4.40;;
40907;SDS011;51055;59.436;24.778;2023-10-31T11:15:25;9.70;;;4.70;;
40907;SDS011;51055;59.436;24.778;2023-10-31T11:17:54;13.40;;;5.97;;
40907;SDS011;51055;59.436;24.778;2023-10-31T11:20:23;11.25;;;5.88;;
40907;SDS011;51055;59.436;24.778;2023-10-31T11:22:54;10.75;;;5.78;;
40907;SDS011;51055;59.436;24.778;2023-10-31T11:25:25;10.10;;;6.15;;
40907;SDS011;51055;59.436;24.778;2023-10-31T11:28:15;12.88;;;6.90;;
40907;SDS011;51055;59.436;24.778;2023-10-31T11:30:45;8.50;;;5.30;;
40907;SDS011;51055;59.436;24.778;2023-10-31T11:33:20;11.27;;;6.03;;
40907;SDS011;51055;59.436;24.778;2023-10-31T11:36:01;13.52;;;5.90;;
40907;SDS011;51055;59.436;24.778;2023-10-31T11:38:32;10.30;;;5.82;;
40907;SDS011;51055;59.436;24.778;2023-10-31T11:41:03;9.68;;;5.97;;
40907;SDS011;51055;59.436;24.778;2023-10-31T11:46:20;10.02;;;5.55;;
40907;SDS011;51055;59.436;24.778;2023-10-31T11:48:52;9.82;;;5.70;;
40907;SDS011;51055;59.436;24.778;2023-10-31T11:51:23;9.25;;;5.80;;
40907;SDS011;51055;59.436;24.778;2023-10-31T11:53:51;13.17;;;8.33;;
40907;SDS011;51055;59.436;24.778;2023-10-31T11:56:20;10.95;;;5.38;;
40907;SDS011;51055;59.436;24.778;2023-10-31T11:59:01;9.02;;;5.35;;
40907;SDS011;51055;59.436;24.778;2023-10-31T12:01:31;8.30;;;5.53;;
40907;SDS011;51055;59.436;24.778;2023-10-31T12:03:59;13.98;;;7.72;;
40907;SDS011;51055;59.436;24.778;2023-10-31T12:06:28;11.38;;;6.20;;
40907;SDS011;51055;59.436;24.778;2023-10-31T12:08:59;12.45;;;8.70;;
40907;SDS011;51055;59.436;24.778;2023-10-31T12:11:28;10.65;;;6.97;;
40907;SDS011;51055;59.436;24.778;2023-10-31T12:14:01;10.13;;;7.53;;
40907;SDS011;51055;59.436;24.778;2023-10-31T12:16:34;8.65;;;5.28;;
40907;SDS011;51055;59.436;24.778;2023-10-31T12:19:03;11.40;;;6.85;;
40907;SDS011;51055;59.436;24.778;2023-10-31T12:24:16;12.38;;;7.32;;
40907;SDS011;51055;59.436;24.778;2023-10-31T12:26:45;12.30;;;7.32;;
40907;SDS011;51055;59.436;24.778;2023-10-31T12:31:49;15.93;;;7.35;;
40907;SDS011;51055;59.436;24.778;2023-10-31T12:34:21;13.40;;;7.25;;
40907;SDS011;51055;59.436;24.778;2023-10-31T12:36:50;10.20;;;6.90;;
40907;SDS011;51055;59.436;24.778;2023-10-31T12:39:25;13.23;;;7.40;;
40907;SDS011;51055;59.436;24.778;2023-10-31T12:41:54;10.10;;;6.88;;
40907;SDS011;51055;59.436;24.778;2023-10-31T12:44:25;8.95;;;6.15;;
40907;SDS011;51055;59.436;24.778;2023-10-31T12:46:55;9.80;;;6.25;;
40907;SDS011;51055;59.436;24.778;2023-10-31T12:49:23;11.32;;;6.63;;
40907;SDS011;51055;59.436;24.778;2023-10-31T12:51:55;10.93;;;5.60;;
40907;SDS011;51055;59.436;24.778;2023-10-31T12:54:32;9.30;;;6.38;;
40907;SDS011;51055;59.436;24.778;2023-10-31T12:57:08;11.40;;;6.75;;
40907;SDS011;51055;59.436;24.778;2023-10-31T12:59:37;9.43;;;6.57;;
40907;SDS011;51055;59.436;24.778;2023-10-31T13:02:07;10.35;;;7.20;;
40907;SDS011;51055;59.436;24.778;2023-10-31T13:04:36;9.73;;;6.40;;
40907;SDS011;51055;59.436;24.778;2023-10-31T13:07:05;11.70;;;6.30;;
40907;SDS011;51055;59.436;24.778;2023-10-31T13:09:36;12.05;;;6.88;;
40907;SDS011;51055;59.436;24.778;2023-10-31T13:12:07;11.45;;;6.20;;
40907;SDS011;51055;59.436;24.778;2023-10-31T13:17:06;9.75;;;6.25;;
40907;SDS011;51055;59.436;24.778;2023-10-31T13:19:34;10.40;;;5.55;;
40907;SDS011;51055;59.436;24.778;2023-10-31T13:22:02;9.45;;;6.05;;
40907;SDS011;51055;59.436;24.778;2023-10-31T13:24:30;9.48;;;6.05;;
40907;SDS011;51055;59.436;24.778;2023-10-31T13:26:58;7.05;;;4.93;;
40907;SDS011;51055;59.436;24.778;2023-10-31T13:29:27;9.10;;;6.30;;
40907;SDS011;51055;59.436;24.778;2023-10-31T13:31:55;9.98;;;6.47;;
40907;SDS011;51055;59.436;24.778;2023-10-31T13:34:22;9.93;;;7.00;;
40907;SDS011;51055;59.436;24.778;2023-10-31T13:36:51;11.73;;;6.45;;
40907;SDS011;51055;59.436;24.778;2023-10-31T13:39:21;11.32;;;6.80;;
40907;SDS011;51055;59.436;24.778;2023-10-31T13:41:49;10.75;;;6.60;;
40907;SDS011;51055;59.436;24.778;2023-10-31T13:44:18;10.25;;;6.60;;
40907;SDS011;51055;59.436;24.778;2023-10-31T13:46:45;9.30;;;6.05;;
40907;SDS011;51055;59.436;24.778;2023-10-31T13:49:13;8.75;;;6.35;;
40907;SDS011;51055;59.436;24.778;2023-10-31T13:51:41;7.55;;;4.95;;
40907;SDS011;51055;59.436;24.778;2023-10-31T13:54:09;9.40;;;6.57;;
40907;SDS011;51055;59.436;24.778;2023-10-31T13:56:36;10.10;;;6.18;;
40907;SDS011;51055;59.436;24.778;2023-10-31T13:59:04;9.20;;;6.25;;
40907;SDS011;51055;59.436;24.778;2023-10-31T14:01:32;9.70;;;6.30;;
40907;SDS011;51055;59.436;24.778;2023-10-31T14:04:00;9.23;;;6.43;;
40907;SDS011;51055;59.436;24.778;2023-10-31T14:06:28;7.07;;;4.57;;
40907;SDS011;51055;59.436;24.778;2023-10-31T14:09:00;9.27;;;5.78;;
40907;SDS011;51055;59.436;24.778;2023-10-31T14:11:32;12.13;;;6.07;;
40907;SDS011;51055;59.436;24.778;2023-10-31T14:14:01;11.65;;;6.47;;
40907;SDS011;51055;59.436;24.778;2023-10-31T14:16:41;8.70;;;6.22;;
40907;SDS011;51055;59.436;24.778;2023-10-31T14:19:12;10.35;;;6.20;;
40907;SDS011;51055;59.436;24.778;2023-10-31T14:21:40;8.83;;;5.87;;
40907;SDS011;51055;59.436;24.778;2023-10-31T14:24:08;12.32;;;8.05;;
40907;SDS011;51055;59.436;24.778;2023-10-31T14:26:39;11.75;;;7.53;;
40907;SDS011;51055;59.436;24.778;2023-10-31T14:29:10;14.90;;;9.63;;
40907;SDS011;51055;59.436;24.778;2023-10-31T14:31:39;9.18;;;6.63;;
40907;SDS011;51055;59.436;24.778;2023-10-31T14:34:10;9.35;;;6.55;;
40907;SDS011;51055;59.436;24.778;2023-10-31T14:36:38;6.93;;;5.10;;
40907;SDS011;51055;59.436;24.778;2023-10-31T14:39:06;11.10;;;7.97;;
40907;SDS011;51055;59.436;24.778;2023-10-31T14:44:03;13.68;;;7.40;;
40907;SDS011;51055;59.436;24.778;2023-10-31T14:46:31;9.47;;;5.17;;
40907;SDS011;51055;59.436;24.778;2023-10-31T14:48:59;10.43;;;7.40;;
40907;SDS011;51055;59.436;24.778;2023-10-31T14:51:27;9.27;;;6.57;;
40907;SDS011;51055;59.436;24.778;2023-10-31T14:53:55;7.63;;;4.80;;
40907;SDS011;51055;59.436;24.778;2023-10-31T14:56:23;11.05;;;6.60;;
40907;SDS011;51055;59.436;24.778;2023-10-31T14:58:51;11.75;;;6.63;;
40907;SDS011;51055;59.436;24.778;2023-10-31T15:01:19;12.05;;;6.95;;